Time;durP1;ratioP1;P1;durP2;ratioP2;P2;SDS_P1;SDS_P2;PMS_P1;PMS_P2;Temp;Humidity;BMP_temperature;BMP_pressure;BME280_temperature;BME280_humidity;BME280_pressure;Samples;Min_cycle;Max_cycle;Signal;HPM_P1;HPM_P2
2023/01/16 00:00:47;;;;;;;;;;;5.90;99.90;;;;;;5024520;28;1108;-72
2023/01/16 00:03:19;;;;;;;;;;;5.90;99.90;;;;;;5025098;28;1038;-71
2023/01/16 00:05:47;;;;;;;;;;;5.90;99.90;;;;;;5025454;28;1337;-71
2023/01/16 00:08:14;;;;;;;;;;;5.80;99.90;;;;;;5024098;28;1914;-72
2023/01/16 00:10:43;;;;;;;;;;;5.80;99.90;;;;;;5023652;28;1843;-72
2023/01/16 00:13:12;;;;;;;;;;;6.10;99.90;;;;;;5023880;28;1040;-72
2023/01/16 00:15:44;;;;;;;;;;;6.00;99.90;;;;;;5026924;28;1693;-72
2023/01/16 00:18:11;;;;;;;;;;;6.10;99.90;;;;;;5026815;28;1439;-71
2023/01/16 00:20:39;;;;;;;;;;;6.00;99.90;;;;;;5024416;28;1463;-72
2023/01/16 00:23:07;;;;;;;;;;;6.00;99.90;;;;;;5027090;28;1093;-72
2023/01/16 00:25:38;;;;;;;;;;;6.00;99.90;;;;;;5024000;28;1268;-72
2023/01/16 00:28:06;;;;;;;;;;;6.10;99.90;;;;;;5027063;28;1983;-71
2023/01/16 00:30:35;;;;;;;;;;;6.10;99.90;;;;;;5026358;28;1083;-73
2023/01/16 00:33:03;;;;;;;;;;;6.10;99.90;;;;;;5026655;28;1064;-71
2023/01/16 00:35:31;;;;;;;;;;;6.10;99.90;;;;;;5030083;28;1292;-72
2023/01/16 00:37:59;;;;;;;;;;;6.10;99.90;;;;;;5022609;28;1064;-70
2023/01/16 00:40:27;;;;;;;;;;;6.10;99.90;;;;;;5024911;28;1044;-72
2023/01/16 00:42:55;;;;;;;;;;;6.20;99.90;;;;;;5026290;28;1396;-71
2023/01/16 00:45:23;;;;;;;;;;;6.20;99.90;;;;;;5025069;28;1452;-72
2023/01/16 00:47:51;;;;;;;;;;;6.20;99.90;;;;;;5022995;28;1989;-73
2023/01/16 00:50:19;;;;;;;;;;;6.20;99.90;;;;;;5029003;28;1096;-70
2023/01/16 00:52:47;;;;;;;;;;;6.20;99.90;;;;;;5024683;28;1720;-71
2023/01/16 00:55:14;;;;;;;;;;;6.20;99.90;;;;;;5022623;28;1294;-73
2023/01/16 00:57:42;;;;;;;;;;;6.20;99.90;;;;;;5023985;28;1268;-71
2023/01/16 01:00:10;;;;;;;;;;;6.20;99.90;;;;;;5026365;28;1029;-72
2023/01/16 01:02:37;;;;;;;;;;;6.10;99.90;;;;;;5025128;28;1121;-71
2023/01/16 01:05:07;;;;;;;;;;;6.00;99.90;;;;;;5022964;28;1286;-70
2023/01/16 01:07:35;;;;;;;;;;;6.10;99.90;;;;;;5025493;28;1984;-71
2023/01/16 01:10:02;;;;;;;;;;;6.20;99.90;;;;;;5022605;28;1599;-70
2023/01/16 01:12:30;;;;;;;;;;;6.10;99.90;;;;;;5025287;28;1052;-70
2023/01/16 01:14:57;;;;;;;;;;;6.10;99.90;;;;;;5022640;28;1540;-71
2023/01/16 01:17:25;;;;;;;;;;;6.10;99.90;;;;;;5026168;28;803;-70
2023/01/16 01:19:53;;;;;;;;;;;6.10;99.90;;;;;;5022020;28;1040;-70
2023/01/16 01:22:22;;;;;;;;;;;6.00;99.90;;;;;;5023311;28;1057;-70
2023/01/16 01:24:50;;;;;;;;;;;6.10;99.90;;;;;;5026106;28;1406;-70
2023/01/16 01:27:17;;;;;;;;;;;6.10;99.90;;;;;;5020552;28;1661;-71
2023/01/16 01:29:45;;;;;;;;;;;6.10;99.90;;;;;;5024669;28;1914;-71
2023/01/16 01:32:13;;;;;;;;;;;6.20;99.90;;;;;;5025771;28;1044;-71
2023/01/16 01:34:40;;;;;;;;;;;6.20;99.90;;;;;;5025791;28;1296;-71
2023/01/16 01:37:08;;;;;;;;;;;6.10;99.90;;;;;;5024002;28;997;-71
2023/01/16 01:39:37;;;;;;;;;;;6.00;99.90;;;;;;5026853;28;994;-71
2023/01/16 01:44:51;;;;;;;;;;;6.00;99.90;;;;;;5022852;28;1371;-71
2023/01/16 01:47:20;;;;;;;;;;;6.00;99.90;;;;;;5025484;28;1084;-72
2023/01/16 01:49:48;;;;;;;;;;;6.00;99.90;;;;;;5024042;28;1902;-72
2023/01/16 01:52:16;;;;;;;;;;;6.10;99.90;;;;;;5025513;28;1080;-72
2023/01/16 01:54:48;;;;;;;;;;;6.10;99.90;;;;;;5022918;28;1292;-71
2023/01/16 01:57:17;;;;;;;;;;;6.00;99.90;;;;;;5021634;28;1052;-72
2023/01/16 01:59:47;;;;;;;;;;;6.00;99.90;;;;;;5023021;28;1179;-72
2023/01/16 02:02:18;;;;;;;;;;;6.00;99.90;;;;;;5025028;28;1089;-72
2023/01/16 02:04:46;;;;;;;;;;;6.00;99.90;;;;;;5024029;28;1359;-73
2023/01/16 02:07:16;;;;;;;;;;;6.00;99.90;;;;;;5023452;28;1108;-72
2023/01/16 02:09:45;;;;;;;;;;;6.00;99.90;;;;;;5024587;28;1906;-72
2023/01/16 02:12:14;;;;;;;;;;;6.00;99.90;;;;;;5022284;28;1975;-73
2023/01/16 02:14:43;;;;;;;;;;;6.00;99.90;;;;;;5023500;28;1321;-72
2023/01/16 02:20:07;;;;;;;;;;;5.90;99.90;;;;;;5022190;28;1100;-73
2023/01/16 02:22:48;;;;;;;;;;;5.90;99.90;;;;;;5026333;28;1145;-72
2023/01/16 02:25:34;;;;;;;;;;;5.90;99.90;;;;;;5023529;28;1332;-74
2023/01/16 02:28:18;;;;;;;;;;;5.90;99.90;;;;;;5022887;28;1173;-71
2023/01/16 02:31:08;;;;;;;;;;;5.90;99.90;;;;;;5017514;28;1073;-71
2023/01/16 02:33:44;;;;;;;;;;;6.00;99.90;;;;;;5029098;28;1069;-72
2023/01/16 02:36:15;;;;;;;;;;;6.00;99.90;;;;;;5024774;28;1406;-72
2023/01/16 02:38:50;;;;;;;;;;;6.00;99.90;;;;;;5024245;28;1176;-71
2023/01/16 02:41:20;;;;;;;;;;;6.00;99.90;;;;;;5024213;28;998;-71
2023/01/16 02:43:53;;;;;;;;;;;5.90;99.90;;;;;;5022224;28;986;-71
2023/01/16 02:46:25;;;;;;;;;;;6.00;99.90;;;;;;5021614;28;1029;-71
2023/01/16 02:48:59;;;;;;;;;;;5.90;99.90;;;;;;5024514;28;1965;-72
2023/01/16 02:51:30;;;;;;;;;;;6.00;99.90;;;;;;5026638;28;1100;-71
2023/01/16 02:54:02;;;;;;;;;;;6.00;99.90;;;;;;5020798;28;1604;-70
2023/01/16 02:56:41;;;;;;;;;;;5.80;99.90;;;;;;5016693;28;1836;-71
2023/01/16 02:59:16;;;;;;;;;;;5.80;99.90;;;;;;5025904;28;1020;-71
2023/01/16 03:01:47;;;;;;;;;;;5.70;99.90;;;;;;5027883;28;1125;-72
2023/01/16 03:04:34;;;;;;;;;;;5.60;99.90;;;;;;5025285;28;1264;-71
2023/01/16 03:07:04;;;;;;;;;;;5.50;99.90;;;;;;5023322;28;2155;-71
2023/01/16 03:09:35;;;;;;;;;;;5.60;99.90;;;;;;5021796;28;1906;-72
2023/01/16 03:12:24;;;;;;;;;;;5.60;99.90;;;;;;5023078;28;1052;-71
2023/01/16 03:14:57;;;;;;;;;;;5.60;99.90;;;;;;5024265;28;1305;-71
2023/01/16 03:17:36;;;;;;;;;;;5.60;99.90;;;;;;5030476;28;1165;-72
2023/01/16 03:20:13;;;;;;;;;;;5.70;99.90;;;;;;5037182;28;1323;-72
2023/01/16 03:22:44;;;;;;;;;;;5.60;99.90;;;;;;5034614;28;1546;-72
2023/01/16 03:25:19;;;;;;;;;;;5.60;99.90;;;;;;5028348;28;1548;-72
2023/01/16 03:27:51;;;;;;;;;;;5.60;99.90;;;;;;5030483;28;1165;-71
2023/01/16 03:30:26;;;;;;;;;;;5.60;99.90;;;;;;5032776;28;1980;-71
2023/01/16 03:32:58;;;;;;;;;;;5.60;99.90;;;;;;5029061;28;1171;-73
2023/01/16 03:35:29;;;;;;;;;;;5.60;99.90;;;;;;5031240;28;1560;-70
2023/01/16 03:37:58;;;;;;;;;;;5.70;99.90;;;;;;5024202;28;1073;-71
2023/01/16 03:40:27;;;;;;;;;;;5.70;99.90;;;;;;5027105;28;1067;-71
2023/01/16 03:42:57;;;;;;;;;;;5.60;99.90;;;;;;5029403;28;1113;-71
2023/01/16 03:45:28;;;;;;;;;;;5.60;99.90;;;;;;5030655;28;1342;-70
2023/01/16 03:48:00;;;;;;;;;;;5.60;99.90;;;;;;5023475;28;1105;-71
2023/01/16 03:50:28;;;;;;;;;;;5.50;99.90;;;;;;5030577;28;1993;-71
2023/01/16 03:52:59;;;;;;;;;;;5.40;99.90;;;;;;5026848;28;1124;-70
2023/01/16 03:55:30;;;;;;;;;;;5.30;99.90;;;;;;5028422;28;1358;-71
2023/01/16 03:58:00;;;;;;;;;;;5.40;99.90;;;;;;5028469;28;1299;-70
2023/01/16 04:00:30;;;;;;;;;;;5.30;99.90;;;;;;5026988;28;1313;-71
2023/01/16 04:03:04;;;;;;;;;;;5.30;99.90;;;;;;5025982;28;1033;-72
2023/01/16 04:05:35;;;;;;;;;;;5.30;99.90;;;;;;5023842;28;1380;-71
2023/01/16 04:08:06;;;;;;;;;;;5.40;99.90;;;;;;5026654;28;1040;-72
2023/01/16 04:10:34;;;;;;;;;;;5.50;99.90;;;;;;5025252;28;1935;-71
2023/01/16 04:13:04;;;;;;;;;;;5.50;99.90;;;;;;5022519;28;1111;-72
2023/01/16 04:15:33;;;;;;;;;;;5.50;99.90;;;;;;5025891;28;1296;-71
2023/01/16 04:18:02;;;;;;;;;;;5.60;99.90;;;;;;5026584;28;1031;-71
2023/01/16 04:20:38;;;;;;;;;;;5.60;99.90;;;;;;5015393;28;1734;-72
2023/01/16 04:23:07;;;;;;;;;;;5.60;99.90;;;;;;5020793;28;1109;-72
2023/01/16 04:25:35;;;;;;;;;;;5.60;99.90;;;;;;5027740;28;1379;-72
2023/01/16 04:28:02;;;;;;;;;;;5.60;99.90;;;;;;5030133;28;917;-71
2023/01/16 04:30:31;;;;;;;;;;;5.60;99.90;;;;;;5034399;28;1965;-71
2023/01/16 04:33:02;;;;;;;;;;;5.70;99.90;;;;;;5023424;28;1720;-71
2023/01/16 04:35:30;;;;;;;;;;;5.60;99.90;;;;;;5023795;28;1365;-71
2023/01/16 04:37:58;;;;;;;;;;;5.60;99.90;;;;;;5025181;28;1925;-72
2023/01/16 04:40:33;;;;;;;;;;;5.70;99.90;;;;;;5023829;28;1014;-72
2023/01/16 04:43:01;;;;;;;;;;;5.70;99.90;;;;;;5020459;28;1089;-71
2023/01/16 04:45:28;;;;;;;;;;;5.70;99.90;;;;;;5027102;28;1349;-72
2023/01/16 04:47:56;;;;;;;;;;;5.70;99.90;;;;;;5028987;28;1378;-72
2023/01/16 04:50:25;;;;;;;;;;;5.90;99.90;;;;;;5023883;28;1999;-72
2023/01/16 04:52:52;;;;;;;;;;;5.80;99.90;;;;;;5018139;28;1700;-72
2023/01/16 04:55:20;;;;;;;;;;;5.80;99.90;;;;;;5023910;28;1275;-72
2023/01/16 04:57:48;;;;;;;;;;;5.80;99.90;;;;;;5024146;28;1019;-72
2023/01/16 05:00:16;;;;;;;;;;;5.80;99.90;;;;;;5026180;28;1069;-72
2023/01/16 05:02:43;;;;;;;;;;;5.90;99.90;;;;;;5020862;28;1680;-72
2023/01/16 05:05:11;;;;;;;;;;;5.70;99.90;;;;;;5023134;28;1292;-72
2023/01/16 05:07:40;;;;;;;;;;;5.80;99.90;;;;;;5027528;28;1584;-73
2023/01/16 05:10:09;;;;;;;;;;;5.80;99.90;;;;;;5027991;28;1910;-74
2023/01/16 05:12:37;;;;;;;;;;;5.70;99.90;;;;;;5029129;28;1699;-73
2023/01/16 05:15:05;;;;;;;;;;;5.80;99.90;;;;;;5026090;28;1349;-69
2023/01/16 05:17:32;;;;;;;;;;;5.80;99.90;;;;;;5037167;28;1543;-70
2023/01/16 05:20:00;;;;;;;;;;;5.80;99.90;;;;;;5043848;28;1077;-71
2023/01/16 05:22:28;;;;;;;;;;;5.80;99.90;;;;;;5047676;28;1097;-71
2023/01/16 05:24:57;;;;;;;;;;;5.80;99.90;;;;;;5042086;28;1389;-71
2023/01/16 05:27:25;;;;;;;;;;;5.80;99.90;;;;;;5038819;28;1101;-70
2023/01/16 05:29:52;;;;;;;;;;;5.90;99.90;;;;;;5038943;28;1161;-71
2023/01/16 05:32:20;;;;;;;;;;;5.90;99.90;;;;;;5044623;28;1045;-71
2023/01/16 05:34:48;;;;;;;;;;;5.80;99.90;;;;;;5040236;28;1453;-71
2023/01/16 05:37:16;;;;;;;;;;;5.70;99.90;;;;;;5041497;28;1083;-72
2023/01/16 05:39:43;;;;;;;;;;;5.70;99.90;;;;;;5036248;28;1664;-71
2023/01/16 05:42:20;;;;;;;;;;;5.80;99.90;;;;;;5040494;28;1659;-76
2023/01/16 05:44:54;;;;;;;;;;;5.90;99.90;;;;;;5036369;28;1300;-74
2023/01/16 05:47:22;;;;;;;;;;;5.80;99.90;;;;;;5028835;28;991;-75
2023/01/16 05:49:51;;;;;;;;;;;5.70;99.90;;;;;;5029125;28;1165;-74
2023/01/16 05:52:19;;;;;;;;;;;5.80;99.90;;;;;;5030012;28;1977;-76
2023/01/16 05:54:56;;;;;;;;;;;5.80;99.90;;;;;;5026582;28;1348;-75
2023/01/16 05:57:26;;;;;;;;;;;5.70;99.90;;;;;;5021265;28;1037;-74
2023/01/16 06:00:05;;;;;;;;;;;5.60;99.90;;;;;;5021735;28;1080;-75
2023/01/16 06:02:46;;;;;;;;;;;5.70;99.90;;;;;;5041290;28;1196;-76
2023/01/16 06:05:26;;;;;;;;;;;5.60;99.90;;;;;;5028795;28;1367;-76
2023/01/16 06:07:54;;;;;;;;;;;5.60;99.90;;;;;;5023518;28;1292;-74
2023/01/16 06:10:28;;;;;;;;;;;5.60;99.90;;;;;;5023695;28;1899;-74
2023/01/16 06:12:57;;;;;;;;;;;5.60;99.90;;;;;;5024949;28;982;-75
2023/01/16 06:15:25;;;;;;;;;;;5.60;99.90;;;;;;5024114;28;1259;-75
2023/01/16 06:17:53;;;;;;;;;;;5.60;99.90;;;;;;5023529;28;1229;-75
2023/01/16 06:20:21;;;;;;;;;;;5.60;99.90;;;;;;5024129;28;1739;-70
2023/01/16 06:22:49;;;;;;;;;;;5.60;99.90;;;;;;5021450;28;989;-70
2023/01/16 06:25:16;;;;;;;;;;;5.50;99.90;;;;;;5021289;28;1625;-69
2023/01/16 06:27:47;;;;;;;;;;;5.40;99.90;;;;;;5020763;28;1095;-70
2023/01/16 06:30:17;;;;;;;;;;;5.50;99.90;;;;;;5024438;28;1084;-71
2023/01/16 06:32:48;;;;;;;;;;;5.50;99.90;;;;;;5026216;28;1910;-71
2023/01/16 06:35:16;;;;;;;;;;;5.50;99.90;;;;;;5025575;28;1710;-70
2023/01/16 06:37:45;;;;;;;;;;;5.40;99.90;;;;;;5024106;28;1033;-70
2023/01/16 06:40:12;;;;;;;;;;;5.50;99.90;;;;;;5025198;28;1072;-69
2023/01/16 06:42:40;;;;;;;;;;;5.60;99.90;;;;;;5024257;28;991;-70
2023/01/16 06:45:08;;;;;;;;;;;5.50;99.90;;;;;;5017549;28;1295;-70
2023/01/16 06:47:37;;;;;;;;;;;5.50;99.90;;;;;;5029111;28;1105;-71
2023/01/16 06:50:05;;;;;;;;;;;5.50;99.90;;;;;;5022158;28;1120;-71
2023/01/16 06:52:34;;;;;;;;;;;5.50;99.90;;;;;;5020813;28;2035;-72
2023/01/16 06:55:02;;;;;;;;;;;5.50;99.90;;;;;;5017035;28;1529;-71
2023/01/16 06:57:29;;;;;;;;;;;5.40;99.90;;;;;;5023651;28;1013;-71
2023/01/16 06:59:57;;;;;;;;;;;5.50;99.90;;;;;;5020279;28;1208;-71
2023/01/16 07:02:24;;;;;;;;;;;5.50;99.90;;;;;;5019990;28;1684;-69
2023/01/16 07:04:54;;;;;;;;;;;5.50;99.90;;;;;;5026078;28;1376;-70
2023/01/16 07:07:21;;;;;;;;;;;5.40;99.90;;;;;;5022656;28;1122;-72
2023/01/16 07:09:49;;;;;;;;;;;5.50;99.90;;;;;;5018348;28;1897;-70
2023/01/16 07:12:17;;;;;;;;;;;5.60;99.90;;;;;;5024626;28;1910;-71
2023/01/16 07:23:17;;;;;;;;;;;5.40;99.90;;;;;;5025344;28;1993;-69
2023/01/16 07:25:45;;;;;;;;;;;5.40;99.90;;;;;;5020304;28;1444;-71
2023/01/16 07:28:13;;;;;;;;;;;5.40;99.90;;;;;;5021551;28;1461;-68
2023/01/16 07:30:41;;;;;;;;;;;5.30;99.90;;;;;;5024297;28;1489;-69
2023/01/16 07:33:10;;;;;;;;;;;5.40;99.90;;;;;;5023329;28;1906;-71
2023/01/16 07:35:39;;;;;;;;;;;5.30;99.90;;;;;;5024619;28;1364;-71
2023/01/16 07:38:06;;;;;;;;;;;5.30;99.90;;;;;;5022844;28;1586;-71
2023/01/16 07:40:35;;;;;;;;;;;5.20;99.90;;;;;;5024745;28;1484;-72
2023/01/16 07:43:02;;;;;;;;;;;5.10;99.90;;;;;;5021055;28;1739;-72
2023/01/16 07:45:30;;;;;;;;;;;5.00;99.90;;;;;;5026411;28;1293;-75
2023/01/16 07:48:00;;;;;;;;;;;5.00;99.90;;;;;;5023307;28;1567;-74
2023/01/16 07:50:28;;;;;;;;;;;5.00;99.90;;;;;;5018838;28;1013;-74
2023/01/16 07:52:59;;;;;;;;;;;4.90;99.90;;;;;;5022020;28;1918;-74
2023/01/16 07:55:28;;;;;;;;;;;4.90;99.90;;;;;;5018855;28;1432;-75
2023/01/16 07:57:56;;;;;;;;;;;4.80;99.90;;;;;;5019441;28;1550;-75
2023/01/16 08:00:24;;;;;;;;;;;4.80;99.90;;;;;;5022361;28;1156;-73
2023/01/16 08:02:51;;;;;;;;;;;4.70;99.90;;;;;;5024783;28;1132;-74
2023/01/16 08:05:27;;;;;;;;;;;4.60;99.90;;;;;;5032946;28;1335;-75
2023/01/16 08:07:55;;;;;;;;;;;4.70;99.90;;;;;;5028662;28;1180;-72
2023/01/16 08:10:24;;;;;;;;;;;4.60;99.90;;;;;;5024219;28;1057;-73
2023/01/16 08:12:51;;;;;;;;;;;4.50;99.90;;;;;;5031697;28;1895;-73
2023/01/16 08:15:19;;;;;;;;;;;4.50;99.90;;;;;;5027074;28;1274;-73
2023/01/16 08:17:47;;;;;;;;;;;4.70;99.90;;;;;;5024953;28;1655;-73
2023/01/16 08:20:15;;;;;;;;;;;4.50;99.90;;;;;;5028827;28;1081;-72
2023/01/16 08:22:43;;;;;;;;;;;4.50;99.90;;;;;;5022607;28;1129;-72
2023/01/16 08:25:11;;;;;;;;;;;4.50;99.90;;;;;;5022518;28;1370;-70
2023/01/16 08:27:41;;;;;;;;;;;4.50;99.90;;;;;;5026936;28;1593;-72
2023/01/16 08:30:10;;;;;;;;;;;4.40;99.90;;;;;;5024178;28;1148;-72
2023/01/16 08:32:42;;;;;;;;;;;4.50;99.90;;;;;;5024722;28;2075;-70
2023/01/16 08:35:10;;;;;;;;;;;4.60;99.90;;;;;;5026153;28;1589;-71
2023/01/16 08:37:39;;;;;;;;;;;4.60;99.90;;;;;;5025158;28;1110;-72
2023/01/16 08:40:08;;;;;;;;;;;4.60;99.90;;;;;;5038372;28;1018;-76
2023/01/16 08:53:54;;;;;;;;;;;4.50;99.90;;;;;;5006077;28;1902;-74
2023/01/16 08:56:22;;;;;;;;;;;4.60;99.90;;;;;;5024156;28;1574;-71
2023/01/16 08:58:49;;;;;;;;;;;4.60;99.90;;;;;;5029935;28;1041;-73
2023/01/16 09:01:19;;;;;;;;;;;4.60;99.90;;;;;;5024769;28;1190;-72
2023/01/16 09:03:46;;;;;;;;;;;4.70;99.90;;;;;;5023350;28;1287;-72
2023/01/16 09:06:14;;;;;;;;;;;4.60;99.90;;;;;;5022050;28;1903;-72
2023/01/16 09:08:41;;;;;;;;;;;4.70;99.90;;;;;;5025003;28;1540;-73
2023/01/16 09:14:00;;;;;;;;;;;4.80;99.90;;;;;;5019102;28;1962;-72
2023/01/16 09:16:29;;;;;;;;;;;4.90;99.90;;;;;;5023143;28;1021;-71
2023/01/16 09:18:56;;;;;;;;;;;4.80;99.90;;;;;;5024393;28;1747;-71
2023/01/16 09:21:24;;;;;;;;;;;4.80;99.90;;;;;;5026041;28;1200;-72
2023/01/16 09:23:52;;;;;;;;;;;4.80;99.90;;;;;;5022669;28;1083;-71
2023/01/16 09:26:20;;;;;;;;;;;4.80;99.90;;;;;;5026229;28;1361;-70
2023/01/16 09:28:47;;;;;;;;;;;4.80;99.90;;;;;;5024015;28;1109;-71
2023/01/16 09:31:15;;;;;;;;;;;4.80;99.90;;;;;;5024559;28;1100;-71
2023/01/16 09:33:45;;;;;;;;;;;4.80;99.90;;;;;;5020614;28;1898;-72
2023/01/16 09:36:16;;;;;;;;;;;4.90;99.90;;;;;;5020764;28;1174;-71
2023/01/16 09:38:44;;;;;;;;;;;4.90;99.90;;;;;;5022662;28;1353;-71
2023/01/16 09:43:35;;;;;;;;;;;4.80;99.90;;;;;;5026433;28;1093;-72
2023/01/16 09:44:04;;;;;;;;;;;4.90;99.90;;;;;;5026709;28;1319;-71
2023/01/16 09:46:37;;;;;;;;;;;4.80;99.90;;;;;;5022077;28;1719;-73
2023/01/16 09:49:14;;;;;;;;;;;4.90;99.90;;;;;;5022865;28;1547;-72
2023/01/16 09:58:34;;;;;;;;;;;5.00;99.90;;;;;;5024639;28;1093;-72
2023/01/16 10:00:08;;;;;;;;;;;5.20;99.90;;;;;;5023140;28;1299;-72
2023/01/16 10:02:36;;;;;;;;;;;5.30;99.90;;;;;;5026324;28;1033;-73
2023/01/16 10:05:06;;;;;;;;;;;5.40;99.90;;;;;;5023642;28;1295;-71
2023/01/16 10:07:46;;;;;;;;;;;5.50;99.90;;;;;;5025238;28;1148;-72
2023/01/16 10:10:20;;;;;;;;;;;5.50;99.90;;;;;;5026151;28;1663;-73
2023/01/16 10:12:52;;;;;;;;;;;5.60;99.90;;;;;;5026071;28;1999;-72
2023/01/16 10:15:23;;;;;;;;;;;5.60;99.90;;;;;;5025163;28;1661;-73
2023/01/16 10:17:57;;;;;;;;;;;5.70;99.90;;;;;;5026402;28;1206;-73
2023/01/16 10:20:45;;;;;;;;;;;5.80;99.90;;;;;;5024016;28;1632;-74
2023/01/16 10:23:22;;;;;;;;;;;5.80;99.90;;;;;;5023408;28;1109;-73
2023/01/16 10:25:56;;;;;;;;;;;5.80;99.90;;;;;;5020833;28;1387;-72
2023/01/16 10:28:32;;;;;;;;;;;5.80;99.90;;;;;;5023677;28;2129;-72
2023/01/16 10:31:05;;;;;;;;;;;5.90;99.90;;;;;;5025679;28;1163;-72
2023/01/16 10:33:35;;;;;;;;;;;5.90;99.90;;;;;;5013973;28;1902;-71
2023/01/16 10:36:21;;;;;;;;;;;5.90;99.90;;;;;;5023163;28;1387;-71
2023/01/16 10:38:54;;;;;;;;;;;5.90;99.90;;;;;;5020003;28;1019;-72
2023/01/16 10:49:44;;;;;;;;;;;6.10;99.90;;;;;;5022646;28;1247;-71
2023/01/16 10:52:14;;;;;;;;;;;6.10;99.90;;;;;;5024242;28;1234;-73
2023/01/16 10:54:41;;;;;;;;;;;6.30;99.90;;;;;;5023647;28;1898;-71
2023/01/16 10:57:15;;;;;;;;;;;6.30;99.90;;;;;;5024798;28;1105;-71
2023/01/16 10:59:43;;;;;;;;;;;6.30;99.90;;;;;;5021355;28;1212;-71
2023/01/16 11:02:16;;;;;;;;;;;6.30;99.90;;;;;;5023963;28;1361;-72
2023/01/16 11:04:46;;;;;;;;;;;6.40;99.90;;;;;;5020402;28;1702;-72
2023/01/16 11:07:17;;;;;;;;;;;6.40;99.90;;;;;;5024648;28;1077;-72
2023/01/16 11:09:49;;;;;;;;;;;6.40;99.90;;;;;;5024580;28;1291;-73
2023/01/16 11:20:49;;;;;;;;;;;6.30;99.90;;;;;;5021415;28;1066;-71
2023/01/16 11:23:20;;;;;;;;;;;6.40;99.90;;;;;;5023146;28;1005;-71
2023/01/16 11:25:49;;;;;;;;;;;6.30;99.90;;;;;;5021468;28;1352;-72
2023/01/16 11:28:19;;;;;;;;;;;6.30;99.90;;;;;;5022424;28;1148;-72
2023/01/16 11:30:48;;;;;;;;;;;6.40;99.90;;;;;;5023467;28;778;-72
2023/01/16 11:33:22;;;;;;;;;;;6.40;99.90;;;;;;5022378;28;1992;-72
2023/01/16 11:35:55;;;;;;;;;;;6.30;99.90;;;;;;5023311;28;1360;-71
2023/01/16 11:38:28;;;;;;;;;;;6.30;99.90;;;;;;5025081;28;1141;-71
2023/01/16 11:40:57;;;;;;;;;;;6.20;99.90;;;;;;5028247;28;1086;-72
2023/01/16 11:46:33;;;;;;;;;;;6.50;99.90;;;;;;5022085;28;1496;-71
2023/01/16 11:49:02;;;;;;;;;;;6.50;99.90;;;;;;5026008;28;1511;-73
2023/01/16 11:51:31;;;;;;;;;;;6.40;99.90;;;;;;5020707;28;1663;-71
2023/01/16 11:54:02;;;;;;;;;;;6.30;99.90;;;;;;5027942;28;1926;-70
2023/01/16 11:56:48;;;;;;;;;;;6.40;99.90;;;;;;5021584;28;1080;-71
2023/01/16 11:59:25;;;;;;;;;;;6.40;99.90;;;;;;5027509;28;1492;-72
2023/01/16 12:05:53;;;;;;;;;;;6.60;99.90;;;;;;5027251;28;1442;-72
2023/01/16 12:07:40;;;;;;;;;;;6.60;99.90;;;;;;5024733;28;1133;-71
2023/01/16 12:10:17;;;;;;;;;;;6.80;99.90;;;;;;5024892;28;1021;-72
2023/01/16 12:15:38;;;;;;;;;;;6.70;99.90;;;;;;5020787;28;1953;-71
2023/01/16 12:18:11;;;;;;;;;;;6.60;99.90;;;;;;5022834;28;1890;-71
2023/01/16 12:20:42;;;;;;;;;;;6.70;99.90;;;;;;5022352;28;1497;-70
2023/01/16 12:23:19;;;;;;;;;;;6.60;99.90;;;;;;5031023;28;1704;-71
2023/01/16 12:25:54;;;;;;;;;;;6.50;99.90;;;;;;5024776;28;1676;-71
2023/01/16 12:28:25;;;;;;;;;;;6.50;99.90;;;;;;5024614;28;1106;-71
2023/01/16 12:31:10;;;;;;;;;;;6.50;99.90;;;;;;5027752;28;1633;-74
2023/01/16 12:33:40;;;;;;;;;;;6.50;99.90;;;;;;5022911;28;1910;-74
2023/01/16 12:36:12;;;;;;;;;;;6.50;99.90;;;;;;5025527;28;1715;-72
2023/01/16 12:38:56;;;;;;;;;;;6.50;99.90;;;;;;5023177;28;1105;-72
2023/01/16 12:44:30;;;;;;;;;;;6.50;99.90;;;;;;4998040;28;1275;-71
2023/01/16 12:47:08;;;;;;;;;;;6.40;99.90;;;;;;5024222;28;1001;-72
2023/01/16 12:49:45;;;;;;;;;;;6.60;99.90;;;;;;5024365;28;1182;-72
2023/01/16 12:52:23;;;;;;;;;;;6.60;99.90;;;;;;5023453;28;1026;-71
2023/01/16 12:54:59;;;;;;;;;;;6.60;99.90;;;;;;5033184;28;1914;-72
2023/01/16 12:57:37;;;;;;;;;;;6.60;99.90;;;;;;5018141;28;1616;-72
2023/01/16 13:00:09;;;;;;;;;;;6.50;99.90;;;;;;5025559;28;1088;-73
2023/01/16 13:02:44;;;;;;;;;;;6.50;99.90;;;;;;5022853;28;1006;-72
2023/01/16 13:05:19;;;;;;;;;;;6.50;99.90;;;;;;5026591;28;1356;-72
2023/01/16 13:07:48;;;;;;;;;;;6.60;99.90;;;;;;5023831;28;1680;-72
2023/01/16 13:13:25;;;;;;;;;;;6.50;99.90;;;;;;5021054;28;977;-72
2023/01/16 13:16:02;;;;;;;;;;;6.50;99.90;;;;;;5023338;28;1962;-72
2023/01/16 13:18:33;;;;;;;;;;;6.60;99.90;;;;;;5024560;28;1176;-73
2023/01/16 13:21:02;;;;;;;;;;;6.60;99.90;;;;;;5024091;28;1124;-73
2023/01/16 13:23:32;;;;;;;;;;;6.60;99.90;;;;;;5024355;28;1133;-73
2023/01/16 13:26:02;;;;;;;;;;;6.50;99.90;;;;;;5023155;28;1426;-71
2023/01/16 13:28:37;;;;;;;;;;;6.70;99.90;;;;;;5023631;28;1168;-72
2023/01/16 13:31:07;;;;;;;;;;;6.70;99.90;;;;;;5024424;28;1261;-73
2023/01/16 13:33:39;;;;;;;;;;;6.70;99.90;;;;;;5022239;28;1107;-72
2023/01/16 13:36:14;;;;;;;;;;;6.70;99.90;;;;;;5022412;28;1962;-72
2023/01/16 13:38:47;;;;;;;;;;;6.70;99.90;;;;;;5024733;28;1275;-72
2023/01/16 13:41:17;;;;;;;;;;;6.70;99.90;;;;;;5026268;28;1111;-72
2023/01/16 13:46:39;;;;;;;;;;;6.60;99.90;;;;;;5024899;28;1096;-71
2023/01/16 13:49:15;;;;;;;;;;;6.60;99.90;;;;;;5023590;28;1414;-73
2023/01/16 13:51:44;;;;;;;;;;;6.50;99.90;;;;;;5022207;28;1173;-73
2023/01/16 13:54:16;;;;;;;;;;;6.50;99.90;;;;;;5026501;28;1987;-72
2023/01/16 13:56:44;;;;;;;;;;;6.50;99.90;;;;;;5022741;28;1643;-73
2023/01/16 13:59:27;;;;;;;;;;;6.50;99.90;;;;;;5022977;28;1507;-72
2023/01/16 14:01:56;;;;;;;;;;;6.40;99.90;;;;;;5023444;28;1112;-71
2023/01/16 14:04:29;;;;;;;;;;;6.50;99.90;;;;;;5024932;28;1372;-72
2023/01/16 14:10:04;;;;;;;;;;;6.50;99.90;;;;;;5024852;28;1073;-71
2023/01/16 14:12:34;;;;;;;;;;;6.40;99.90;;;;;;5028267;28;1140;-72
2023/01/16 14:18:01;;;;;;;;;;;6.40;99.90;;;;;;5020003;28;1600;-72
2023/01/16 14:20:36;;;;;;;;;;;6.40;99.90;;;;;;5020800;28;1550;-71
2023/01/16 14:25:51;;;;;;;;;;;6.40;99.90;;;;;;5019933;28;1371;-72
2023/01/16 14:28:19;;;;;;;;;;;6.40;99.90;;;;;;5024762;28;1605;-72
2023/01/16 14:30:49;;;;;;;;;;;6.40;99.90;;;;;;5024008;28;1062;-73
2023/01/16 14:33:17;;;;;;;;;;;6.30;99.90;;;;;;5024777;28;1592;-71
2023/01/16 14:35:47;;;;;;;;;;;6.50;99.90;;;;;;5030718;28;1903;-73
2023/01/16 14:38:16;;;;;;;;;;;6.40;99.90;;;;;;5026516;28;1283;-72
2023/01/16 14:55:40;;;;;;;;;;;6.30;99.90;;;;;;5021623;28;2024;-71
2023/01/16 14:58:12;;;;;;;;;;;6.30;99.90;;;;;;5018974;28;1386;-71
2023/01/16 15:00:42;;;;;;;;;;;6.20;99.90;;;;;;5023162;28;1107;-72
2023/01/16 15:03:15;;;;;;;;;;;6.30;99.90;;;;;;5019887;28;1605;-72
2023/01/16 15:05:51;;;;;;;;;;;6.20;99.90;;;;;;5019954;28;1805;-72
2023/01/16 15:08:24;;;;;;;;;;;6.30;99.90;;;;;;5026332;28;1062;-71
2023/01/16 15:10:53;;;;;;;;;;;6.20;99.90;;;;;;5020999;28;1065;-72
2023/01/16 15:13:22;;;;;;;;;;;6.30;99.90;;;;;;5027470;28;1002;-72
2023/01/16 15:15:53;;;;;;;;;;;6.40;99.90;;;;;;5024774;28;1906;-72
2023/01/16 15:23:58;;;;;;;;;;;6.10;99.90;;;;;;5027918;28;1426;-77
2023/01/16 15:26:44;;;;;;;;;;;6.00;99.90;;;;;;5023587;28;1129;-75
2023/01/16 15:29:19;;;;;;;;;;;6.10;99.90;;;;;;5028824;28;1656;-72
2023/01/16 15:31:48;;;;;;;;;;;6.20;99.90;;;;;;5031330;28;1031;-73
2023/01/16 15:34:20;;;;;;;;;;;6.10;99.90;;;;;;5022068;28;1597;-71
2023/01/16 15:36:49;;;;;;;;;;;6.20;99.90;;;;;;5023087;28;2017;-71
2023/01/16 15:39:25;;;;;;;;;;;6.20;99.90;;;;;;5027986;28;1089;-72
2023/01/16 15:47:46;;;;;;;;;;;6.20;99.90;;;;;;5022965;28;1097;-73
2023/01/16 15:50:23;;;;;;;;;;;6.10;99.90;;;;;;5027403;28;1029;-73
2023/01/16 15:52:51;;;;;;;;;;;6.00;99.90;;;;;;5024679;28;1255;-72
2023/01/16 15:55:21;;;;;;;;;;;5.90;99.90;;;;;;5024138;28;1996;-72
2023/01/16 15:57:50;;;;;;;;;;;6.00;99.90;;;;;;5027381;28;1358;-73
2023/01/16 16:00:38;;;;;;;;;;;5.90;99.90;;;;;;5022785;28;1512;-72
2023/01/16 16:03:13;;;;;;;;;;;5.80;99.90;;;;;;5021532;28;1054;-73
2023/01/16 16:05:43;;;;;;;;;;;5.80;99.90;;;;;;5027293;28;1458;-71
2023/01/16 16:08:14;;;;;;;;;;;5.80;99.90;;;;;;5028214;28;1113;-72
2023/01/16 16:13:29;;;;;;;;;;;5.80;99.90;;;;;;5023889;28;1491;-73
2023/01/16 16:18:53;;;;;;;;;;;5.80;99.90;;;;;;5026253;28;981;-71
2023/01/16 16:21:22;;;;;;;;;;;5.90;99.90;;;;;;5027098;28;1185;-73
2023/01/16 16:23:54;;;;;;;;;;;5.90;99.90;;;;;;5023698;28;1137;-71
2023/01/16 16:26:23;;;;;;;;;;;5.80;99.90;;;;;;5020525;28;1191;-71
2023/01/16 16:28:54;;;;;;;;;;;5.90;99.90;;;;;;5023382;28;1678;-71
2023/01/16 16:31:24;;;;;;;;;;;5.90;99.90;;;;;;5025556;28;1038;-71
2023/01/16 16:33:56;;;;;;;;;;;5.90;99.90;;;;;;5025154;28;1049;-71
2023/01/16 16:36:24;;;;;;;;;;;5.90;99.90;;;;;;5026841;28;1973;-72
2023/01/16 16:38:53;;;;;;;;;;;6.00;99.90;;;;;;5021805;28;1082;-72
2023/01/16 16:44:24;;;;;;;;;;;5.90;99.90;;;;;;5101733;27;1308;-70
2023/01/16 16:46:56;;;;;;;;;;;5.90;99.90;;;;;;5097676;28;1485;-72
2023/01/16 16:49:28;;;;;;;;;;;5.90;99.90;;;;;;5099871;28;1744;-71
2023/01/16 16:51:55;;;;;;;;;;;5.90;99.90;;;;;;5100027;28;1688;-72
2023/01/16 16:54:26;;;;;;;;;;;5.90;99.90;;;;;;5102081;28;1612;-72
2023/01/16 16:56:57;;;;;;;;;;;5.90;99.90;;;;;;5104835;28;1727;-72